KMJX/MJX METAR and TAF weather

Enter ICAO airport designator
Station Type Date Time Source
KMJX METAR 2021/10/24 20:56 UTC NOAA

KMJX 242056Z AUTO 17005KT 10SM 15/08 A3015 RMK AO2 SLP213 60000 T01500083 56011 $


Station Type Date Time Source
KMJX Decoded METAR 2021/10/24 20:56 UTC NOAA

Station name not available
Oct 24, 2021 - 04:56 PM EDT / 2021.10.24 2056 UTC
Wind: from the S (170 degrees) at 6 MPH (5 KT):0
Visibility: 10 mile(s):0
Temperature: 59.0 F (15.0 C)
Dew Point: 46.9 F (8.3 C)
Relative Humidity: 64%
Pressure (altimeter): 30.15 in. Hg (1020 hPa)
Pressure tendency: 0.03 inches (1.1 hPa) lower than three hours ago
ob: KMJX 242056Z AUTO 17005KT 10SM 15/08 A3015 RMK AO2 SLP213 60000 T01500083 56011
cycle: 21

Station Type Date Time Source
KMJX TAF UTC NOAA

Error!

Example: see airport list